VTI719 VIJP-VOGO
Flight info
| Callsign | VTI719 |
|---|---|
| Flight time | N/A |
| Altitude | 38000 |
| Route | NIKOT1D NIKOT A474 BBB/N0448F390 W15 MABTA B211 EPKOS EPKOS2A |
| Aircraft | A20N/M-SDE2E3FGHIRWXY/LB1 |
Departure
| Time | N/A |
|---|---|
| Airport | Jaipur International Airport (VIJP) |
Arrival
| Time | 2026-05-04 13:51 |
|---|---|
| Airport | Goa Dabolim International Airport (VOGO) |
| Time | Latitude | Longitude | Altitude | Speed | Heading |
|---|---|---|---|---|---|
| 2026-05-04 13:21 | 19.06921 | 72.88344 | 37800 ft | 464 kts | 181° |
| 2026-05-04 13:21 | 19.00511 | 72.89480 | 37793 ft | 469 kts | 169° |
| 2026-05-04 13:21 | 18.94181 | 72.91107 | 37797 ft | 469 kts | 170° |
| 2026-05-04 13:22 | 18.81467 | 72.94317 | 37803 ft | 469 kts | 169° |
| 2026-05-04 13:22 | 18.68785 | 72.97533 | 37814 ft | 469 kts | 169° |
| 2026-05-04 13:23 | 18.56095 | 73.00757 | 37818 ft | 468 kts | 170° |
| 2026-05-04 13:23 | 18.43564 | 73.03889 | 37828 ft | 467 kts | 169° |
| 2026-05-04 13:24 | 18.30932 | 73.07076 | 37823 ft | 467 kts | 169° |
| 2026-05-04 13:24 | 18.18301 | 73.10254 | 37828 ft | 466 kts | 169° |
| 2026-05-04 13:25 | 17.98641 | 73.15191 | 37829 ft | 465 kts | 169° |
| 2026-05-04 13:25 | 17.84283 | 73.18790 | 37830 ft | 464 kts | 169° |
| 2026-05-04 13:26 | 17.71737 | 73.21929 | 37830 ft | 464 kts | 169° |
| 2026-05-04 13:26 | 17.59226 | 73.25047 | 37835 ft | 464 kts | 169° |
| 2026-05-04 13:27 | 17.46203 | 73.28292 | 37841 ft | 464 kts | 168° |
| 2026-05-04 13:27 | 17.33627 | 73.31422 | 37847 ft | 464 kts | 168° |
| 2026-05-04 13:28 | 17.21128 | 73.34843 | 37853 ft | 466 kts | 157° |
| 2026-05-04 13:28 | 17.15704 | 73.38569 | 37846 ft | 469 kts | 137° |
| 2026-05-04 13:28 | 17.11754 | 73.43944 | 37645 ft | 467 kts | 118° |
| 2026-05-04 13:29 | 17.09405 | 73.50286 | 36366 ft | 468 kts | 109° |
| 2026-05-04 13:29 | 17.07258 | 73.56741 | 34826 ft | 474 kts | 109° |
| 2026-05-04 13:29 | 17.05057 | 73.63281 | 33212 ft | 478 kts | 110° |
| 2026-05-04 13:29 | 17.02865 | 73.69778 | 32353 ft | 485 kts | 109° |
| 2026-05-04 13:30 | 17.00604 | 73.76476 | 31872 ft | 489 kts | 109° |
| 2026-05-04 13:30 | 16.98336 | 73.83187 | 31408 ft | 491 kts | 109° |
| 2026-05-04 13:30 | 16.96055 | 73.89929 | 30947 ft | 493 kts | 109° |
| 2026-05-04 13:30 | 16.93767 | 73.96682 | 30495 ft | 492 kts | 109° |
| 2026-05-04 13:31 | 16.91478 | 74.03373 | 30038 ft | 489 kts | 112° |
| 2026-05-04 13:31 | 16.87789 | 74.09253 | 29532 ft | 482 kts | 136° |
| 2026-05-04 13:31 | 16.82305 | 74.13080 | 29021 ft | 471 kts | 160° |
| 2026-05-04 13:31 | 16.75978 | 74.14301 | 28502 ft | 459 kts | 182° |
| 2026-05-04 13:32 | 16.69615 | 74.14347 | 28002 ft | 456 kts | 180° |
| 2026-05-04 13:32 | 16.63306 | 74.14805 | 28783 ft | 451 kts | 175° |
| 2026-05-04 13:32 | 16.57124 | 74.15449 | 27272 ft | 453 kts | 174° |
| 2026-05-04 13:32 | 16.50796 | 74.16153 | 24445 ft | 451 kts | 176° |
| 2026-05-04 13:33 | 16.45467 | 74.16760 | 23215 ft | 444 kts | 176° |
| 2026-05-04 13:33 | 16.42405 | 74.17099 | 22470 ft | 439 kts | 176° |
| 2026-05-04 13:33 | 16.39383 | 74.17430 | 21744 ft | 434 kts | 176° |
| 2026-05-04 13:33 | 16.36402 | 74.17756 | 21091 ft | 427 kts | 176° |
| 2026-05-04 13:34 | 16.33485 | 74.18074 | 20315 ft | 425 kts | 175° |
| 2026-05-04 13:34 | 16.30542 | 74.18394 | 19599 ft | 422 kts | 175° |
| 2026-05-04 13:34 | 16.27600 | 74.18713 | 18904 ft | 418 kts | 175° |
| 2026-05-04 13:34 | 16.24718 | 74.19025 | 18245 ft | 414 kts | 174° |
| 2026-05-04 13:35 | 16.21861 | 74.19336 | 17589 ft | 408 kts | 174° |
| 2026-05-04 13:35 | 16.16240 | 74.19952 | 16022 ft | 403 kts | 174° |
| 2026-05-04 13:35 | 16.13463 | 74.20152 | 15299 ft | 400 kts | 180° |
| 2026-05-04 13:36 | 16.10690 | 74.19989 | 14616 ft | 396 kts | 185° |
| 2026-05-04 13:36 | 16.07962 | 74.19743 | 13955 ft | 393 kts | 185° |
| 2026-05-04 13:36 | 16.05234 | 74.19504 | 13264 ft | 390 kts | 185° |
| 2026-05-04 13:36 | 16.02559 | 74.19272 | 12757 ft | 381 kts | 185° |
| 2026-05-04 13:37 | 15.99933 | 74.19044 | 12075 ft | 378 kts | 185° |
| 2026-05-04 13:37 | 15.97324 | 74.18818 | 11454 ft | 373 kts | 185° |
| 2026-05-04 13:37 | 15.94740 | 74.18595 | 10857 ft | 368 kts | 185° |
| 2026-05-04 13:37 | 15.93067 | 74.18450 | 10477 ft | 365 kts | 185° |
| 2026-05-04 13:38 | 15.89715 | 74.18161 | 9898 ft | 353 kts | 185° |
| 2026-05-04 13:38 | 15.87349 | 74.17957 | 9728 ft | 338 kts | 185° |
| 2026-05-04 13:38 | 15.85061 | 74.17761 | 9541 ft | 323 kts | 185° |
| 2026-05-04 13:38 | 15.82865 | 74.17573 | 9405 ft | 309 kts | 185° |
| 2026-05-04 13:39 | 15.80770 | 74.17394 | 9263 ft | 295 kts | 185° |
| 2026-05-04 13:39 | 15.78767 | 74.17222 | 9156 ft | 282 kts | 185° |
| 2026-05-04 13:39 | 15.76862 | 74.17059 | 9041 ft | 270 kts | 185° |
| 2026-05-04 13:39 | 15.75030 | 74.16902 | 8884 ft | 256 kts | 185° |
| 2026-05-04 13:40 | 15.73301 | 74.16753 | 8705 ft | 243 kts | 185° |
| 2026-05-04 13:40 | 15.71629 | 74.16610 | 8329 ft | 237 kts | 186° |
| 2026-05-04 13:40 | 15.70039 | 74.16475 | 8179 ft | 222 kts | 186° |
| 2026-05-04 13:40 | 15.68536 | 74.16347 | 7964 ft | 213 kts | 186° |
| 2026-05-04 13:41 | 15.67051 | 74.16217 | 7520 ft | 216 kts | 186° |
| 2026-05-04 13:41 | 15.65536 | 74.16086 | 7056 ft | 221 kts | 186° |
| 2026-05-04 13:41 | 15.63991 | 74.15949 | 6614 ft | 225 kts | 186° |
| 2026-05-04 13:42 | 15.60827 | 74.15679 | 5688 ft | 232 kts | 187° |
| 2026-05-04 13:42 | 15.59215 | 74.15543 | 5426 ft | 225 kts | 187° |
| 2026-05-04 13:42 | 15.57727 | 74.15419 | 5285 ft | 209 kts | 187° |
| 2026-05-04 13:42 | 15.56196 | 74.15288 | 5192 ft | 222 kts | 187° |
| 2026-05-04 13:43 | 15.54680 | 74.15156 | 5098 ft | 221 kts | 187° |
| 2026-05-04 13:43 | 15.53151 | 74.15024 | 4987 ft | 220 kts | 187° |
| 2026-05-04 13:43 | 15.51636 | 74.14895 | 4877 ft | 219 kts | 188° |
| 2026-05-04 13:43 | 15.50115 | 74.14763 | 4789 ft | 218 kts | 188° |
| 2026-05-04 13:44 | 15.48605 | 74.14633 | 4703 ft | 220 kts | 188° |
| 2026-05-04 13:44 | 15.47075 | 74.14499 | 4653 ft | 219 kts | 187° |
| 2026-05-04 13:44 | 15.45558 | 74.14363 | 4606 ft | 216 kts | 190° |
| 2026-05-04 13:44 | 15.44243 | 74.13766 | 4255 ft | 205 kts | 230° |
| 2026-05-04 13:45 | 15.43667 | 74.12505 | 3867 ft | 193 kts | 263° |
| 2026-05-04 13:45 | 15.43478 | 74.11148 | 3460 ft | 190 kts | 266° |
| 2026-05-04 13:45 | 15.43282 | 74.09784 | 3056 ft | 190 kts | 263° |
| 2026-05-04 13:45 | 15.43036 | 74.08450 | 2799 ft | 185 kts | 261° |
| 2026-05-04 13:46 | 15.42786 | 74.07181 | 2731 ft | 181 kts | 261° |
| 2026-05-04 13:46 | 15.42529 | 74.05863 | 2724 ft | 187 kts | 261° |
| 2026-05-04 13:46 | 15.42273 | 74.04570 | 2721 ft | 182 kts | 261° |
| 2026-05-04 13:46 | 15.42022 | 74.03284 | 2721 ft | 180 kts | 261° |
| 2026-05-04 13:47 | 15.41764 | 74.01972 | 2719 ft | 186 kts | 261° |
| 2026-05-04 13:47 | 15.41512 | 74.00697 | 2717 ft | 180 kts | 262° |
| 2026-05-04 13:47 | 15.41261 | 73.99415 | 2714 ft | 180 kts | 262° |
| 2026-05-04 13:47 | 15.41013 | 73.98150 | 2676 ft | 181 kts | 261° |
| 2026-05-04 13:48 | 15.40761 | 73.96876 | 2493 ft | 179 kts | 262° |
| 2026-05-04 13:48 | 15.40514 | 73.95615 | 2245 ft | 177 kts | 261° |
| 2026-05-04 13:48 | 15.40269 | 73.94367 | 2028 ft | 174 kts | 261° |
| 2026-05-04 13:48 | 15.40028 | 73.93139 | 1783 ft | 169 kts | 261° |
| 2026-05-04 13:49 | 15.39801 | 73.91985 | 1555 ft | 162 kts | 261° |
| 2026-05-04 13:49 | 15.39574 | 73.90821 | 1336 ft | 165 kts | 259° |
| 2026-05-04 13:49 | 15.39350 | 73.89692 | 1122 ft | 154 kts | 261° |
| 2026-05-04 13:49 | 15.39138 | 73.88610 | 938 ft | 156 kts | 262° |
| 2026-05-04 13:50 | 15.38915 | 73.87473 | 743 ft | 160 kts | 261° |
| 2026-05-04 13:50 | 15.38684 | 73.86373 | 507 ft | 150 kts | 258° |
| 2026-05-04 13:50 | 15.38472 | 73.85274 | 358 ft | 163 kts | 260° |
| 2026-05-04 13:50 | 15.38254 | 73.84148 | 193 ft | 156 kts | 261° |
| 2026-05-04 13:51 | 15.38034 | 73.83070 | 157 ft | 147 kts | 251° |
| 2026-05-04 13:51 | 15.37828 | 73.82081 | 132 ft | 138 kts | 243° |
| 2026-05-04 13:51 | 15.37600 | 73.81572 | 120 ft | 0 kts | 247° |